sensor_id;sensor_type;location;lat;lon;timestamp;P1;durP1;ratioP1;P2;durP2;ratioP2
11263;SDS011;5689;48.798;9.070;2023-04-04T00:00:36;0.80;;;0.80;;
11263;SDS011;5689;48.798;9.070;2023-04-04T00:03:06;0.77;;;0.77;;
11263;SDS011;5689;48.798;9.070;2023-04-04T00:05:34;0.90;;;0.90;;
11263;SDS011;5689;48.798;9.070;2023-04-04T00:08:02;0.80;;;0.80;;
11263;SDS011;5689;48.798;9.070;2023-04-04T00:10:30;0.90;;;0.90;;
11263;SDS011;5689;48.798;9.070;2023-04-04T00:12:59;0.80;;;0.80;;
11263;SDS011;5689;48.798;9.070;2023-04-04T00:15:28;0.73;;;0.73;;
11263;SDS011;5689;48.798;9.070;2023-04-04T00:17:56;0.70;;;0.70;;
11263;SDS011;5689;48.798;9.070;2023-04-04T00:20:26;0.83;;;0.83;;
11263;SDS011;5689;48.798;9.070;2023-04-04T00:22:54;0.73;;;0.73;;
11263;SDS011;5689;48.798;9.070;2023-04-04T00:25:23;0.80;;;0.80;;
11263;SDS011;5689;48.798;9.070;2023-04-04T00:27:51;0.90;;;0.90;;
11263;SDS011;5689;48.798;9.070;2023-04-04T00:30:20;0.80;;;0.80;;
11263;SDS011;5689;48.798;9.070;2023-04-04T00:32:48;0.70;;;0.70;;
11263;SDS011;5689;48.798;9.070;2023-04-04T00:35:16;0.70;;;0.70;;
11263;SDS011;5689;48.798;9.070;2023-04-04T00:37:45;0.80;;;0.80;;
11263;SDS011;5689;48.798;9.070;2023-04-04T00:40:13;0.90;;;0.90;;
11263;SDS011;5689;48.798;9.070;2023-04-04T00:42:41;0.80;;;0.80;;
11263;SDS011;5689;48.798;9.070;2023-04-04T00:45:10;0.70;;;0.70;;
11263;SDS011;5689;48.798;9.070;2023-04-04T00:47:38;0.83;;;0.83;;
11263;SDS011;5689;48.798;9.070;2023-04-04T00:50:10;0.70;;;0.70;;
11263;SDS011;5689;48.798;9.070;2023-04-04T00:52:38;0.80;;;0.80;;
11263;SDS011;5689;48.798;9.070;2023-04-04T00:55:07;0.73;;;0.73;;
11263;SDS011;5689;48.798;9.070;2023-04-04T00:57:36;0.90;;;0.90;;
11263;SDS011;5689;48.798;9.070;2023-04-04T01:00:04;1.00;;;1.00;;
11263;SDS011;5689;48.798;9.070;2023-04-04T01:02:33;1.00;;;1.00;;
11263;SDS011;5689;48.798;9.070;2023-04-04T01:05:02;0.90;;;0.90;;
11263;SDS011;5689;48.798;9.070;2023-04-04T01:07:31;0.87;;;0.87;;
11263;SDS011;5689;48.798;9.070;2023-04-04T01:10:01;1.00;;;1.00;;
11263;SDS011;5689;48.798;9.070;2023-04-04T01:12:33;0.90;;;0.90;;
11263;SDS011;5689;48.798;9.070;2023-04-04T01:15:02;0.87;;;0.87;;
11263;SDS011;5689;48.798;9.070;2023-04-04T01:17:31;0.80;;;0.80;;
11263;SDS011;5689;48.798;9.070;2023-04-04T01:20:02;1.00;;;1.00;;
11263;SDS011;5689;48.798;9.070;2023-04-04T01:22:39;0.80;;;0.80;;
11263;SDS011;5689;48.798;9.070;2023-04-04T01:25:08;0.90;;;0.90;;
11263;SDS011;5689;48.798;9.070;2023-04-04T01:27:42;1.10;;;1.10;;
11263;SDS011;5689;48.798;9.070;2023-04-04T01:30:13;1.03;;;1.03;;
11263;SDS011;5689;48.798;9.070;2023-04-04T01:32:47;0.90;;;0.90;;
11263;SDS011;5689;48.798;9.070;2023-04-04T01:35:20;0.97;;;0.97;;
11263;SDS011;5689;48.798;9.070;2023-04-04T01:37:57;0.80;;;0.80;;
11263;SDS011;5689;48.798;9.070;2023-04-04T01:40:39;1.03;;;1.03;;
11263;SDS011;5689;48.798;9.070;2023-04-04T01:43:13;0.90;;;0.90;;
11263;SDS011;5689;48.798;9.070;2023-04-04T01:45:43;1.00;;;1.00;;
11263;SDS011;5689;48.798;9.070;2023-04-04T01:48:12;0.93;;;0.93;;
11263;SDS011;5689;48.798;9.070;2023-04-04T01:50:44;1.10;;;1.10;;
11263;SDS011;5689;48.798;9.070;2023-04-04T01:53:13;1.23;;;1.23;;
11263;SDS011;5689;48.798;9.070;2023-04-04T01:55:41;1.00;;;1.00;;
11263;SDS011;5689;48.798;9.070;2023-04-04T01:58:10;1.00;;;1.00;;
11263;SDS011;5689;48.798;9.070;2023-04-04T02:00:39;1.07;;;1.07;;
11263;SDS011;5689;48.798;9.070;2023-04-04T02:03:07;1.10;;;1.10;;
11263;SDS011;5689;48.798;9.070;2023-04-04T02:05:35;1.20;;;1.20;;
11263;SDS011;5689;48.798;9.070;2023-04-04T02:08:04;1.10;;;1.10;;
11263;SDS011;5689;48.798;9.070;2023-04-04T02:10:43;1.03;;;1.03;;
11263;SDS011;5689;48.798;9.070;2023-04-04T02:13:11;2.97;;;1.10;;
11263;SDS011;5689;48.798;9.070;2023-04-04T02:15:41;1.20;;;1.20;;
11263;SDS011;5689;48.798;9.070;2023-04-04T02:18:10;1.07;;;1.07;;
11263;SDS011;5689;48.798;9.070;2023-04-04T02:20:38;1.10;;;1.10;;
11263;SDS011;5689;48.798;9.070;2023-04-04T02:23:06;1.00;;;1.00;;
11263;SDS011;5689;48.798;9.070;2023-04-04T02:25:34;1.00;;;1.00;;
11263;SDS011;5689;48.798;9.070;2023-04-04T02:28:02;0.90;;;0.90;;
11263;SDS011;5689;48.798;9.070;2023-04-04T02:30:31;0.90;;;0.90;;
11263;SDS011;5689;48.798;9.070;2023-04-04T02:33:03;1.07;;;1.07;;
11263;SDS011;5689;48.798;9.070;2023-04-04T02:35:31;1.30;;;1.30;;
11263;SDS011;5689;48.798;9.070;2023-04-04T02:37:59;1.10;;;1.10;;
11263;SDS011;5689;48.798;9.070;2023-04-04T02:40:37;1.10;;;1.10;;
11263;SDS011;5689;48.798;9.070;2023-04-04T02:43:07;1.10;;;1.10;;
11263;SDS011;5689;48.798;9.070;2023-04-04T02:45:36;0.93;;;0.93;;
11263;SDS011;5689;48.798;9.070;2023-04-04T02:48:14;1.00;;;1.00;;
11263;SDS011;5689;48.798;9.070;2023-04-04T02:50:46;1.20;;;1.20;;
11263;SDS011;5689;48.798;9.070;2023-04-04T02:53:14;0.93;;;0.93;;
11263;SDS011;5689;48.798;9.070;2023-04-04T02:55:44;0.90;;;0.90;;
11263;SDS011;5689;48.798;9.070;2023-04-04T02:58:12;1.10;;;1.10;;
11263;SDS011;5689;48.798;9.070;2023-04-04T03:00:40;1.10;;;1.10;;
11263;SDS011;5689;48.798;9.070;2023-04-04T03:03:08;1.07;;;1.07;;
11263;SDS011;5689;48.798;9.070;2023-04-04T03:05:42;1.00;;;1.00;;
11263;SDS011;5689;48.798;9.070;2023-04-04T03:08:11;1.10;;;1.10;;
11263;SDS011;5689;48.798;9.070;2023-04-04T03:10:40;1.00;;;1.00;;
11263;SDS011;5689;48.798;9.070;2023-04-04T03:13:08;1.00;;;1.00;;
11263;SDS011;5689;48.798;9.070;2023-04-04T03:15:37;1.20;;;1.20;;
11263;SDS011;5689;48.798;9.070;2023-04-04T03:18:06;1.10;;;1.10;;
11263;SDS011;5689;48.798;9.070;2023-04-04T03:20:34;1.00;;;1.00;;
11263;SDS011;5689;48.798;9.070;2023-04-04T03:23:04;0.90;;;0.90;;
11263;SDS011;5689;48.798;9.070;2023-04-04T03:25:32;1.00;;;1.00;;
11263;SDS011;5689;48.798;9.070;2023-04-04T03:28:06;1.20;;;1.20;;
11263;SDS011;5689;48.798;9.070;2023-04-04T03:30:36;1.10;;;1.10;;
11263;SDS011;5689;48.798;9.070;2023-04-04T03:33:04;1.07;;;1.07;;
11263;SDS011;5689;48.798;9.070;2023-04-04T03:35:36;1.00;;;1.00;;
11263;SDS011;5689;48.798;9.070;2023-04-04T03:38:06;1.03;;;1.03;;
11263;SDS011;5689;48.798;9.070;2023-04-04T03:40:34;1.60;;;1.50;;
11263;SDS011;5689;48.798;9.070;2023-04-04T03:43:09;1.43;;;1.43;;
11263;SDS011;5689;48.798;9.070;2023-04-04T03:45:39;1.17;;;1.17;;
11263;SDS011;5689;48.798;9.070;2023-04-04T03:48:08;1.00;;;1.00;;
11263;SDS011;5689;48.798;9.070;2023-04-04T03:50:37;1.27;;;1.27;;
11263;SDS011;5689;48.798;9.070;2023-04-04T03:53:07;1.30;;;1.30;;
11263;SDS011;5689;48.798;9.070;2023-04-04T03:55:35;1.20;;;1.20;;
11263;SDS011;5689;48.798;9.070;2023-04-04T03:58:06;1.10;;;1.10;;
11263;SDS011;5689;48.798;9.070;2023-04-04T04:00:34;1.23;;;1.23;;
11263;SDS011;5689;48.798;9.070;2023-04-04T04:03:02;1.20;;;1.20;;
11263;SDS011;5689;48.798;9.070;2023-04-04T04:05:30;0.93;;;0.93;;
11263;SDS011;5689;48.798;9.070;2023-04-04T04:07:59;1.30;;;1.30;;
11263;SDS011;5689;48.798;9.070;2023-04-04T04:10:28;1.20;;;1.20;;
11263;SDS011;5689;48.798;9.070;2023-04-04T04:12:56;1.07;;;1.07;;
11263;SDS011;5689;48.798;9.070;2023-04-04T04:15:25;1.20;;;1.20;;
11263;SDS011;5689;48.798;9.070;2023-04-04T04:17:55;1.20;;;1.20;;
11263;SDS011;5689;48.798;9.070;2023-04-04T04:20:25;1.13;;;1.13;;
11263;SDS011;5689;48.798;9.070;2023-04-04T04:22:53;1.50;;;1.50;;
11263;SDS011;5689;48.798;9.070;2023-04-04T04:25:21;1.03;;;1.03;;
11263;SDS011;5689;48.798;9.070;2023-04-04T04:27:59;1.10;;;1.10;;
11263;SDS011;5689;48.798;9.070;2023-04-04T04:30:27;1.10;;;1.10;;
11263;SDS011;5689;48.798;9.070;2023-04-04T04:32:55;1.23;;;1.23;;
11263;SDS011;5689;48.798;9.070;2023-04-04T04:35:30;1.30;;;1.30;;
11263;SDS011;5689;48.798;9.070;2023-04-04T04:38:01;1.20;;;1.20;;
11263;SDS011;5689;48.798;9.070;2023-04-04T04:40:29;1.20;;;1.20;;
11263;SDS011;5689;48.798;9.070;2023-04-04T04:43:06;1.10;;;1.10;;
11263;SDS011;5689;48.798;9.070;2023-04-04T04:45:34;1.03;;;1.03;;
11263;SDS011;5689;48.798;9.070;2023-04-04T04:48:07;1.00;;;1.00;;
11263;SDS011;5689;48.798;9.070;2023-04-04T04:50:46;1.20;;;1.20;;
11263;SDS011;5689;48.798;9.070;2023-04-04T04:53:23;1.30;;;1.30;;
11263;SDS011;5689;48.798;9.070;2023-04-04T04:55:52;1.20;;;1.20;;
11263;SDS011;5689;48.798;9.070;2023-04-04T04:58:21;1.13;;;1.13;;
11263;SDS011;5689;48.798;9.070;2023-04-04T05:00:53;1.10;;;1.10;;
11263;SDS011;5689;48.798;9.070;2023-04-04T05:03:25;1.20;;;1.20;;
11263;SDS011;5689;48.798;9.070;2023-04-04T05:05:54;1.30;;;1.30;;
11263;SDS011;5689;48.798;9.070;2023-04-04T05:08:22;1.30;;;1.30;;
11263;SDS011;5689;48.798;9.070;2023-04-04T05:10:59;1.13;;;1.13;;
11263;SDS011;5689;48.798;9.070;2023-04-04T05:13:30;1.20;;;1.20;;
11263;SDS011;5689;48.798;9.070;2023-04-04T05:15:58;1.13;;;1.13;;
11263;SDS011;5689;48.798;9.070;2023-04-04T05:18:27;1.17;;;1.17;;
11263;SDS011;5689;48.798;9.070;2023-04-04T05:20:55;1.13;;;1.13;;
11263;SDS011;5689;48.798;9.070;2023-04-04T05:23:26;1.23;;;1.23;;
11263;SDS011;5689;48.798;9.070;2023-04-04T05:25:55;1.30;;;1.30;;
11263;SDS011;5689;48.798;9.070;2023-04-04T05:28:29;1.20;;;1.20;;
11263;SDS011;5689;48.798;9.070;2023-04-04T05:31:01;1.10;;;1.10;;
11263;SDS011;5689;48.798;9.070;2023-04-04T05:33:31;1.10;;;1.10;;
11263;SDS011;5689;48.798;9.070;2023-04-04T05:36:18;1.20;;;1.20;;
11263;SDS011;5689;48.798;9.070;2023-04-04T05:38:51;1.20;;;1.20;;
11263;SDS011;5689;48.798;9.070;2023-04-04T05:41:23;1.20;;;1.20;;
11263;SDS011;5689;48.798;9.070;2023-04-04T05:43:56;1.10;;;1.10;;
11263;SDS011;5689;48.798;9.070;2023-04-04T05:46:24;1.10;;;1.10;;
11263;SDS011;5689;48.798;9.070;2023-04-04T05:48:53;1.00;;;1.00;;
11263;SDS011;5689;48.798;9.070;2023-04-04T05:51:22;0.97;;;0.97;;
11263;SDS011;5689;48.798;9.070;2023-04-04T05:54:06;0.90;;;0.90;;
11263;SDS011;5689;48.798;9.070;2023-04-04T05:56:36;0.70;;;0.70;;
11263;SDS011;5689;48.798;9.070;2023-04-04T05:59:12;0.80;;;0.80;;
11263;SDS011;5689;48.798;9.070;2023-04-04T06:01:51;0.70;;;0.70;;
11263;SDS011;5689;48.798;9.070;2023-04-04T06:04:20;0.50;;;0.50;;
11263;SDS011;5689;48.798;9.070;2023-04-04T06:06:49;0.60;;;0.60;;
11263;SDS011;5689;48.798;9.070;2023-04-04T06:09:18;0.50;;;0.50;;
11263;SDS011;5689;48.798;9.070;2023-04-04T06:11:46;0.60;;;0.60;;
11263;SDS011;5689;48.798;9.070;2023-04-04T06:14:17;0.53;;;0.53;;
11263;SDS011;5689;48.798;9.070;2023-04-04T06:16:45;0.50;;;0.50;;
11263;SDS011;5689;48.798;9.070;2023-04-04T06:19:14;0.50;;;0.50;;
11263;SDS011;5689;48.798;9.070;2023-04-04T06:21:42;0.50;;;0.50;;
11263;SDS011;5689;48.798;9.070;2023-04-04T06:24:12;0.50;;;0.50;;
11263;SDS011;5689;48.798;9.070;2023-04-04T06:26:40;0.50;;;0.50;;
11263;SDS011;5689;48.798;9.070;2023-04-04T06:29:11;0.50;;;0.50;;
11263;SDS011;5689;48.798;9.070;2023-04-04T06:31:42;0.40;;;0.40;;
11263;SDS011;5689;48.798;9.070;2023-04-04T06:34:18;0.50;;;0.50;;
11263;SDS011;5689;48.798;9.070;2023-04-04T06:36:53;0.50;;;0.50;;
11263;SDS011;5689;48.798;9.070;2023-04-04T06:39:25;0.50;;;0.50;;
11263;SDS011;5689;48.798;9.070;2023-04-04T06:41:57;0.37;;;0.37;;
11263;SDS011;5689;48.798;9.070;2023-04-04T06:44:27;0.30;;;0.30;;
11263;SDS011;5689;48.798;9.070;2023-04-04T06:46:57;0.20;;;0.20;;
11263;SDS011;5689;48.798;9.070;2023-04-04T06:49:25;0.20;;;0.20;;
11263;SDS011;5689;48.798;9.070;2023-04-04T06:51:53;0.30;;;0.30;;
11263;SDS011;5689;48.798;9.070;2023-04-04T06:54:21;0.30;;;0.30;;
11263;SDS011;5689;48.798;9.070;2023-04-04T06:56:51;0.20;;;0.20;;
11263;SDS011;5689;48.798;9.070;2023-04-04T06:59:19;0.30;;;0.30;;
11263;SDS011;5689;48.798;9.070;2023-04-04T07:01:47;0.30;;;0.30;;
11263;SDS011;5689;48.798;9.070;2023-04-04T07:04:18;0.27;;;0.27;;
11263;SDS011;5689;48.798;9.070;2023-04-04T07:06:46;0.20;;;0.20;;
11263;SDS011;5689;48.798;9.070;2023-04-04T07:09:14;0.40;;;0.40;;
11263;SDS011;5689;48.798;9.070;2023-04-04T07:11:47;0.30;;;0.30;;
11263;SDS011;5689;48.798;9.070;2023-04-04T07:14:15;0.40;;;0.40;;
11263;SDS011;5689;48.798;9.070;2023-04-04T07:16:44;0.50;;;0.50;;
11263;SDS011;5689;48.798;9.070;2023-04-04T07:19:12;0.50;;;0.50;;
11263;SDS011;5689;48.798;9.070;2023-04-04T07:21:41;0.50;;;0.50;;
11263;SDS011;5689;48.798;9.070;2023-04-04T07:24:10;0.60;;;0.60;;
11263;SDS011;5689;48.798;9.070;2023-04-04T07:26:38;0.40;;;0.40;;
11263;SDS011;5689;48.798;9.070;2023-04-04T07:29:06;0.30;;;0.30;;
11263;SDS011;5689;48.798;9.070;2023-04-04T07:31:34;0.40;;;0.40;;
11263;SDS011;5689;48.798;9.070;2023-04-04T07:34:02;0.20;;;0.20;;
11263;SDS011;5689;48.798;9.070;2023-04-04T07:36:31;0.30;;;0.30;;
11263;SDS011;5689;48.798;9.070;2023-04-04T07:39:00;0.30;;;0.30;;
11263;SDS011;5689;48.798;9.070;2023-04-04T07:41:28;0.40;;;0.40;;
11263;SDS011;5689;48.798;9.070;2023-04-04T07:43:57;0.30;;;0.30;;
11263;SDS011;5689;48.798;9.070;2023-04-04T07:46:25;0.30;;;0.30;;
11263;SDS011;5689;48.798;9.070;2023-04-04T07:48:54;0.30;;;0.30;;
11263;SDS011;5689;48.798;9.070;2023-04-04T07:51:22;0.20;;;0.20;;
11263;SDS011;5689;48.798;9.070;2023-04-04T07:53:54;0.30;;;0.30;;
11263;SDS011;5689;48.798;9.070;2023-04-04T07:56:24;0.20;;;0.20;;
11263;SDS011;5689;48.798;9.070;2023-04-04T07:58:52;0.40;;;0.40;;
11263;SDS011;5689;48.798;9.070;2023-04-04T08:01:20;0.40;;;0.40;;
11263;SDS011;5689;48.798;9.070;2023-04-04T08:03:49;0.30;;;0.30;;
11263;SDS011;5689;48.798;9.070;2023-04-04T08:06:18;0.50;;;0.50;;
11263;SDS011;5689;48.798;9.070;2023-04-04T08:08:46;0.60;;;0.60;;
11263;SDS011;5689;48.798;9.070;2023-04-04T08:11:16;0.50;;;0.50;;
11263;SDS011;5689;48.798;9.070;2023-04-04T08:13:46;0.50;;;0.50;;
11263;SDS011;5689;48.798;9.070;2023-04-04T08:16:14;0.40;;;0.40;;
11263;SDS011;5689;48.798;9.070;2023-04-04T08:18:42;0.40;;;0.40;;
11263;SDS011;5689;48.798;9.070;2023-04-04T08:21:11;0.50;;;0.50;;
11263;SDS011;5689;48.798;9.070;2023-04-04T08:23:39;0.30;;;0.30;;
11263;SDS011;5689;48.798;9.070;2023-04-04T08:26:07;0.30;;;0.30;;
11263;SDS011;5689;48.798;9.070;2023-04-04T08:28:37;0.33;;;0.33;;
11263;SDS011;5689;48.798;9.070;2023-04-04T08:31:06;0.30;;;0.30;;
11263;SDS011;5689;48.798;9.070;2023-04-04T08:33:35;0.20;;;0.20;;
11263;SDS011;5689;48.798;9.070;2023-04-04T08:36:11;0.38;;;0.38;;
11263;SDS011;5689;48.798;9.070;2023-04-04T08:38:39;0.50;;;0.50;;
11263;SDS011;5689;48.798;9.070;2023-04-04T08:41:08;0.50;;;0.50;;
11263;SDS011;5689;48.798;9.070;2023-04-04T08:43:37;0.50;;;0.50;;
11263;SDS011;5689;48.798;9.070;2023-04-04T08:46:08;0.40;;;0.40;;
11263;SDS011;5689;48.798;9.070;2023-04-04T08:48:40;0.40;;;0.40;;
11263;SDS011;5689;48.798;9.070;2023-04-04T08:51:09;0.40;;;0.40;;
11263;SDS011;5689;48.798;9.070;2023-04-04T08:53:40;0.35;;;0.35;;
11263;SDS011;5689;48.798;9.070;2023-04-04T08:56:09;0.30;;;0.30;;
11263;SDS011;5689;48.798;9.070;2023-04-04T08:58:37;0.30;;;0.30;;
11263;SDS011;5689;48.798;9.070;2023-04-04T09:01:05;0.30;;;0.30;;
11263;SDS011;5689;48.798;9.070;2023-04-04T09:03:35;0.40;;;0.40;;
11263;SDS011;5689;48.798;9.070;2023-04-04T09:06:04;0.47;;;0.47;;
11263;SDS011;5689;48.798;9.070;2023-04-04T09:08:33;0.50;;;0.50;;
11263;SDS011;5689;48.798;9.070;2023-04-04T09:11:02;0.30;;;0.30;;
11263;SDS011;5689;48.798;9.070;2023-04-04T09:13:30;0.50;;;0.50;;
11263;SDS011;5689;48.798;9.070;2023-04-04T09:15:58;0.50;;;0.50;;
11263;SDS011;5689;48.798;9.070;2023-04-04T09:18:27;0.40;;;0.40;;
11263;SDS011;5689;48.798;9.070;2023-04-04T09:20:57;0.40;;;0.40;;
11263;SDS011;5689;48.798;9.070;2023-04-04T09:23:26;0.30;;;0.30;;
11263;SDS011;5689;48.798;9.070;2023-04-04T09:25:54;0.35;;;0.35;;
11263;SDS011;5689;48.798;9.070;2023-04-04T09:28:25;0.30;;;0.30;;
11263;SDS011;5689;48.798;9.070;2023-04-04T09:30:54;0.30;;;0.30;;
11263;SDS011;5689;48.798;9.070;2023-04-04T09:33:23;0.40;;;0.40;;
11263;SDS011;5689;48.798;9.070;2023-04-04T09:35:53;0.30;;;0.30;;
11263;SDS011;5689;48.798;9.070;2023-04-04T09:38:27;0.40;;;0.40;;
11263;SDS011;5689;48.798;9.070;2023-04-04T09:40:56;0.50;;;0.50;;
11263;SDS011;5689;48.798;9.070;2023-04-04T09:43:25;0.40;;;0.40;;
11263;SDS011;5689;48.798;9.070;2023-04-04T09:45:56;0.43;;;0.43;;
11263;SDS011;5689;48.798;9.070;2023-04-04T09:48:25;0.50;;;0.50;;
11263;SDS011;5689;48.798;9.070;2023-04-04T09:50:55;0.40;;;0.40;;
11263;SDS011;5689;48.798;9.070;2023-04-04T09:53:26;0.80;;;0.80;;
11263;SDS011;5689;48.798;9.070;2023-04-04T09:55:55;0.60;;;0.60;;
11263;SDS011;5689;48.798;9.070;2023-04-04T09:58:24;0.50;;;0.50;;
11263;SDS011;5689;48.798;9.070;2023-04-04T10:00:54;0.40;;;0.40;;
11263;SDS011;5689;48.798;9.070;2023-04-04T10:03:23;0.43;;;0.43;;
11263;SDS011;5689;48.798;9.070;2023-04-04T10:05:55;0.30;;;0.30;;
11263;SDS011;5689;48.798;9.070;2023-04-04T10:08:28;0.30;;;0.30;;
11263;SDS011;5689;48.798;9.070;2023-04-04T10:10:56;0.50;;;0.50;;
11263;SDS011;5689;48.798;9.070;2023-04-04T10:13:35;0.40;;;0.40;;
11263;SDS011;5689;48.798;9.070;2023-04-04T10:16:06;0.40;;;0.40;;
11263;SDS011;5689;48.798;9.070;2023-04-04T10:18:35;0.50;;;0.50;;
11263;SDS011;5689;48.798;9.070;2023-04-04T10:21:05;0.50;;;0.50;;
11263;SDS011;5689;48.798;9.070;2023-04-04T10:23:39;0.60;;;0.60;;
11263;SDS011;5689;48.798;9.070;2023-04-04T10:26:09;0.50;;;0.50;;
11263;SDS011;5689;48.798;9.070;2023-04-04T10:28:38;0.60;;;0.60;;
11263;SDS011;5689;48.798;9.070;2023-04-04T10:31:08;0.60;;;0.60;;
11263;SDS011;5689;48.798;9.070;2023-04-04T10:33:49;0.50;;;0.50;;
11263;SDS011;5689;48.798;9.070;2023-04-04T10:36:23;0.40;;;0.40;;
11263;SDS011;5689;48.798;9.070;2023-04-04T10:39:03;0.50;;;0.50;;
11263;SDS011;5689;48.798;9.070;2023-04-04T10:41:39;0.40;;;0.40;;
11263;SDS011;5689;48.798;9.070;2023-04-04T10:44:10;0.30;;;0.30;;
11263;SDS011;5689;48.798;9.070;2023-04-04T10:46:45;0.30;;;0.30;;
11263;SDS011;5689;48.798;9.070;2023-04-04T10:49:16;0.30;;;0.30;;
11263;SDS011;5689;48.798;9.070;2023-04-04T10:51:45;0.30;;;0.30;;
11263;SDS011;5689;48.798;9.070;2023-04-04T10:54:20;0.40;;;0.40;;
11263;SDS011;5689;48.798;9.070;2023-04-04T10:56:48;0.40;;;0.40;;
11263;SDS011;5689;48.798;9.070;2023-04-04T10:59:16;0.20;;;0.20;;
11263;SDS011;5689;48.798;9.070;2023-04-04T11:01:48;0.20;;;0.20;;
11263;SDS011;5689;48.798;9.070;2023-04-04T11:04:17;0.20;;;0.20;;
11263;SDS011;5689;48.798;9.070;2023-04-04T11:09:50;0.20;;;0.20;;
11263;SDS011;5689;48.798;9.070;2023-04-04T11:12:20;0.30;;;0.30;;
11263;SDS011;5689;48.798;9.070;2023-04-04T11:17:43;0.50;;;0.50;;
11263;SDS011;5689;48.798;9.070;2023-04-04T11:20:33;0.50;;;0.50;;
11263;SDS011;5689;48.798;9.070;2023-04-04T11:23:04;0.60;;;0.60;;
11263;SDS011;5689;48.798;9.070;2023-04-04T11:25:40;0.40;;;0.40;;
11263;SDS011;5689;48.798;9.070;2023-04-04T11:28:24;0.32;;;0.32;;
11263;SDS011;5689;48.798;9.070;2023-04-04T11:33:53;0.40;;;0.40;;
11263;SDS011;5689;48.798;9.070;2023-04-04T11:36:23;0.30;;;0.30;;
11263;SDS011;5689;48.798;9.070;2023-04-04T11:39:21;0.30;;;0.30;;
11263;SDS011;5689;48.798;9.070;2023-04-04T11:41:55;0.30;;;0.30;;
11263;SDS011;5689;48.798;9.070;2023-04-04T11:44:30;0.30;;;0.30;;
11263;SDS011;5689;48.798;9.070;2023-04-04T11:47:07;0.20;;;0.20;;
11263;SDS011;5689;48.798;9.070;2023-04-04T11:49:37;0.20;;;0.20;;
11263;SDS011;5689;48.798;9.070;2023-04-04T11:52:07;0.20;;;0.20;;
11263;SDS011;5689;48.798;9.070;2023-04-04T11:54:37;0.50;;;0.50;;
11263;SDS011;5689;48.798;9.070;2023-04-04T11:57:08;0.30;;;0.30;;
11263;SDS011;5689;48.798;9.070;2023-04-04T11:59:39;0.30;;;0.30;;
11263;SDS011;5689;48.798;9.070;2023-04-04T12:02:07;0.30;;;0.30;;
11263;SDS011;5689;48.798;9.070;2023-04-04T12:04:37;0.20;;;0.20;;
11263;SDS011;5689;48.798;9.070;2023-04-04T12:07:08;0.30;;;0.30;;
11263;SDS011;5689;48.798;9.070;2023-04-04T12:09:36;0.20;;;0.20;;
11263;SDS011;5689;48.798;9.070;2023-04-04T12:12:07;0.20;;;0.20;;
11263;SDS011;5689;48.798;9.070;2023-04-04T12:14:40;0.10;;;0.10;;
11263;SDS011;5689;48.798;9.070;2023-04-04T12:17:08;0.20;;;0.20;;
11263;SDS011;5689;48.798;9.070;2023-04-04T12:19:37;0.20;;;0.20;;
11263;SDS011;5689;48.798;9.070;2023-04-04T12:22:06;0.20;;;0.20;;
11263;SDS011;5689;48.798;9.070;2023-04-04T12:24:34;0.20;;;0.20;;
11263;SDS011;5689;48.798;9.070;2023-04-04T12:27:03;0.20;;;0.20;;
11263;SDS011;5689;48.798;9.070;2023-04-04T12:29:33;0.20;;;0.20;;
11263;SDS011;5689;48.798;9.070;2023-04-04T12:32:03;0.20;;;0.20;;
11263;SDS011;5689;48.798;9.070;2023-04-04T12:34:33;0.20;;;0.20;;
11263;SDS011;5689;48.798;9.070;2023-04-04T12:37:03;0.17;;;0.17;;
11263;SDS011;5689;48.798;9.070;2023-04-04T12:39:39;0.20;;;0.20;;
11263;SDS011;5689;48.798;9.070;2023-04-04T12:42:19;0.20;;;0.20;;
11263;SDS011;5689;48.798;9.070;2023-04-04T12:44:50;0.20;;;0.20;;
11263;SDS011;5689;48.798;9.070;2023-04-04T12:47:19;0.20;;;0.20;;
11263;SDS011;5689;48.798;9.070;2023-04-04T12:49:49;0.20;;;0.20;;
11263;SDS011;5689;48.798;9.070;2023-04-04T12:52:20;0.10;;;0.10;;
11263;SDS011;5689;48.798;9.070;2023-04-04T12:54:52;0.20;;;0.20;;
11263;SDS011;5689;48.798;9.070;2023-04-04T12:57:30;0.20;;;0.20;;
11263;SDS011;5689;48.798;9.070;2023-04-04T13:00:02;0.20;;;0.20;;
11263;SDS011;5689;48.798;9.070;2023-04-04T13:02:34;0.20;;;0.20;;
11263;SDS011;5689;48.798;9.070;2023-04-04T13:05:03;0.20;;;0.20;;
11263;SDS011;5689;48.798;9.070;2023-04-04T13:07:33;0.20;;;0.20;;
11263;SDS011;5689;48.798;9.070;2023-04-04T13:10:09;0.15;;;0.15;;
11263;SDS011;5689;48.798;9.070;2023-04-04T13:12:50;0.20;;;0.20;;
11263;SDS011;5689;48.798;9.070;2023-04-04T13:15:23;0.10;;;0.10;;
11263;SDS011;5689;48.798;9.070;2023-04-04T13:18:15;0.20;;;0.20;;
11263;SDS011;5689;48.798;9.070;2023-04-04T13:20:44;0.22;;;0.22;;
11263;SDS011;5689;48.798;9.070;2023-04-04T13:23:12;0.20;;;0.20;;
11263;SDS011;5689;48.798;9.070;2023-04-04T13:25:41;0.20;;;0.20;;
11263;SDS011;5689;48.798;9.070;2023-04-04T13:28:09;0.20;;;0.20;;
11263;SDS011;5689;48.798;9.070;2023-04-04T13:30:39;0.20;;;0.20;;
11263;SDS011;5689;48.798;9.070;2023-04-04T13:33:12;0.20;;;0.20;;
11263;SDS011;5689;48.798;9.070;2023-04-04T13:35:41;0.17;;;0.17;;
11263;SDS011;5689;48.798;9.070;2023-04-04T13:38:10;0.10;;;0.10;;
11263;SDS011;5689;48.798;9.070;2023-04-04T13:40:38;0.15;;;0.15;;
11263;SDS011;5689;48.798;9.070;2023-04-04T13:43:06;0.20;;;0.20;;
11263;SDS011;5689;48.798;9.070;2023-04-04T13:45:37;0.20;;;0.20;;
11263;SDS011;5689;48.798;9.070;2023-04-04T13:48:06;0.20;;;0.20;;
11263;SDS011;5689;48.798;9.070;2023-04-04T13:50:35;0.25;;;0.25;;
11263;SDS011;5689;48.798;9.070;2023-04-04T13:53:04;0.20;;;0.20;;
11263;SDS011;5689;48.798;9.070;2023-04-04T13:55:32;0.10;;;0.10;;
11263;SDS011;5689;48.798;9.070;2023-04-04T13:58:00;0.20;;;0.20;;
11263;SDS011;5689;48.798;9.070;2023-04-04T14:00:28;0.10;;;0.10;;
11263;SDS011;5689;48.798;9.070;2023-04-04T14:02:57;0.20;;;0.20;;
11263;SDS011;5689;48.798;9.070;2023-04-04T14:05:26;0.20;;;0.20;;
11263;SDS011;5689;48.798;9.070;2023-04-04T14:07:54;0.17;;;0.17;;
11263;SDS011;5689;48.798;9.070;2023-04-04T14:10:23;0.10;;;0.10;;
11263;SDS011;5689;48.798;9.070;2023-04-04T14:12:51;0.10;;;0.10;;
11263;SDS011;5689;48.798;9.070;2023-04-04T14:15:19;0.20;;;0.20;;
11263;SDS011;5689;48.798;9.070;2023-04-04T14:17:49;0.20;;;0.20;;
11263;SDS011;5689;48.798;9.070;2023-04-04T14:20:17;0.10;;;0.10;;
11263;SDS011;5689;48.798;9.070;2023-04-04T14:22:47;0.10;;;0.10;;
11263;SDS011;5689;48.798;9.070;2023-04-04T14:25:15;0.13;;;0.13;;
11263;SDS011;5689;48.798;9.070;2023-04-04T14:27:43;0.00;;;0.00;;
11263;SDS011;5689;48.798;9.070;2023-04-04T14:30:11;0.10;;;0.10;;
11263;SDS011;5689;48.798;9.070;2023-04-04T14:32:40;0.10;;;0.10;;
11263;SDS011;5689;48.798;9.070;2023-04-04T14:35:08;0.10;;;0.10;;
11263;SDS011;5689;48.798;9.070;2023-04-04T14:37:38;0.20;;;0.20;;
11263;SDS011;5689;48.798;9.070;2023-04-04T14:40:08;0.20;;;0.20;;
11263;SDS011;5689;48.798;9.070;2023-04-04T14:42:38;0.20;;;0.20;;
11263;SDS011;5689;48.798;9.070;2023-04-04T14:45:06;0.20;;;0.20;;
11263;SDS011;5689;48.798;9.070;2023-04-04T14:47:36;0.10;;;0.10;;
11263;SDS011;5689;48.798;9.070;2023-04-04T14:50:05;0.10;;;0.10;;
11263;SDS011;5689;48.798;9.070;2023-04-04T14:52:34;0.10;;;0.10;;
11263;SDS011;5689;48.798;9.070;2023-04-04T14:55:03;0.15;;;0.15;;
11263;SDS011;5689;48.798;9.070;2023-04-04T14:57:34;0.10;;;0.10;;
11263;SDS011;5689;48.798;9.070;2023-04-04T15:00:05;0.10;;;0.10;;
11263;SDS011;5689;48.798;9.070;2023-04-04T15:02:35;0.10;;;0.10;;
11263;SDS011;5689;48.798;9.070;2023-04-04T15:05:03;0.10;;;0.10;;
11263;SDS011;5689;48.798;9.070;2023-04-04T15:07:32;0.10;;;0.10;;
11263;SDS011;5689;48.798;9.070;2023-04-04T15:10:00;0.10;;;0.10;;
11263;SDS011;5689;48.798;9.070;2023-04-04T15:12:29;0.20;;;0.20;;
11263;SDS011;5689;48.798;9.070;2023-04-04T15:14:58;0.10;;;0.10;;
11263;SDS011;5689;48.798;9.070;2023-04-04T15:17:26;0.20;;;0.20;;
11263;SDS011;5689;48.798;9.070;2023-04-04T15:19:54;0.10;;;0.10;;
11263;SDS011;5689;48.798;9.070;2023-04-04T15:22:23;0.20;;;0.20;;
11263;SDS011;5689;48.798;9.070;2023-04-04T15:24:51;0.10;;;0.10;;
11263;SDS011;5689;48.798;9.070;2023-04-04T15:27:20;0.20;;;0.20;;